Time;durP1;ratioP1;P1;durP2;ratioP2;P2;SDS_P1;SDS_P2;PMS_P1;PMS_P2;Temp;Humidity;BMP_temperature;BMP_pressure;BME280_temperature;BME280_humidity;BME280_pressure;Samples;Min_cycle;Max_cycle;Signal;HPM_P1;HPM_P2
2021/04/25 00:00:57;;;;;;;5.90;1.92;;;;;;;2.01;63.38;100246.19;1700312;82;21177;-76
2021/04/25 00:03:26;;;;;;;7.23;2.10;;;;;;;1.98;63.29;100244.37;1691086;84;21154;-77
2021/04/25 00:05:54;;;;;;;6.85;2.25;;;;;;;1.92;64.27;100249.52;1683711;82;21140;-77
2021/04/25 00:08:22;;;;;;;5.85;2.22;;;;;;;1.88;64.65;100252.30;1678559;84;21168;-77
2021/04/25 00:10:49;;;;;;;6.25;2.40;;;;;;;1.85;64.73;100249.97;1692636;82;21171;-78
2021/04/25 00:13:19;;;;;;;7.10;2.97;;;;;;;1.81;64.97;100255.45;1705924;84;21179;-78
2021/04/25 00:15:47;;;;;;;8.43;3.72;;;;;;;1.80;65.59;100258.31;1695364;82;21120;-79
2021/04/25 00:18:14;;;;;;;8.58;3.42;;;;;;;1.76;64.79;100257.89;1678762;85;21575;-76
2021/04/25 00:20:44;;;;;;;10.47;5.13;;;;;;;1.74;65.31;100250.50;1686176;82;21129;-76
2021/04/25 00:23:12;;;;;;;10.03;5.50;;;;;;;1.72;65.48;100254.42;1711102;84;21105;-78
2021/04/25 00:25:40;;;;;;;8.35;3.72;;;;;;;1.68;66.24;100254.45;1707783;82;21135;-77
2021/04/25 00:28:09;;;;;;;7.00;3.40;;;;;;;1.64;65.54;100255.38;1679336;85;21493;-77
2021/04/25 00:30:37;;;;;;;6.72;2.77;;;;;;;1.62;65.59;100251.20;1680633;83;21136;-77
2021/04/25 00:33:05;;;;;;;;;;;;;;;1.59;65.67;100250.22;1694254;82;21168;-76
2021/04/25 00:35:35;;;;;;;6.33;2.50;;;;;;;1.55;65.47;100247.06;1692892;85;20190;-75
2021/04/25 00:38:03;;;;;;;5.80;2.47;;;;;;;1.54;65.61;100260.24;1690812;82;21150;-76
2021/04/25 00:40:31;;;;;;;6.72;2.77;;;;;;;1.51;65.69;100259.27;1710023;82;21148;-77
2021/04/25 00:42:59;;;;;;;7.45;2.35;;;;;;;1.48;65.09;100262.34;1689031;82;21213;-76
2021/04/25 00:45:27;;;;;;;5.95;2.30;;;;;;;1.46;65.21;100257.66;1691528;84;21395;-76
2021/04/25 00:47:55;;;;;;;5.83;2.40;;;;;;;1.44;65.88;100252.97;1705306;82;21133;-74
2021/04/25 00:50:25;;;;;;;7.12;2.75;;;;;;;1.42;65.88;100257.69;1708278;84;21136;-76
2021/04/25 00:52:56;;;;;;;6.90;2.30;;;;;;;1.40;66.48;100244.91;1692011;82;21152;-74
2021/04/25 00:55:25;;;;;;;7.93;2.40;;;;;;;1.39;66.05;100253.20;1674441;84;21109;-75
2021/04/25 00:57:54;;;;;;;8.10;3.73;;;;;;;1.38;65.63;100254.22;1673479;83;21112;-76
2021/04/25 01:00:22;;;;;;;10.10;3.90;;;;;;;1.31;65.57;100251.45;1674140;86;21192;-75
2021/04/25 01:02:50;;;;;;;10.60;4.17;;;;;;;1.27;65.65;100251.49;1674878;82;21248;-76
2021/04/25 01:05:19;;;;;;;10.88;4.72;;;;;;;1.23;66.18;100256.45;1674584;84;21159;-75
2021/04/25 01:07:47;;;;;;;9.87;4.10;;;;;;;1.21;66.83;100258.47;1694556;83;21181;-75
2021/04/25 01:10:17;;;;;;;9.27;3.83;;;;;;;1.19;67.25;100252.44;1714137;83;21593;-73
2021/04/25 01:12:45;;;;;;;9.43;3.50;;;;;;;1.17;67.18;100249.10;1714827;84;21153;-74
2021/04/25 01:15:14;;;;;;;9.28;3.87;;;;;;;1.15;67.57;100247.62;1706821;82;21268;-77
2021/04/25 01:17:46;;;;;;;14.10;3.70;;;;;;;1.14;67.75;100247.28;1700909;84;21143;-74
2021/04/25 01:20:19;;;;;;;9.20;3.70;;;;;;;1.11;68.04;100251.19;1705638;82;21134;-74
2021/04/25 01:22:47;;;;;;;8.37;3.47;;;;;;;1.08;67.71;100251.59;1711185;84;21133;-75
2021/04/25 01:25:20;;;;;;;7.90;3.30;;;;;;;1.08;67.63;100256.14;1693899;83;21689;-76
2021/04/25 01:27:48;;;;;;;9.17;3.67;;;;;;;1.08;67.60;100253.44;1683506;84;21131;-75
2021/04/25 01:30:21;;;;;;;8.23;3.33;;;;;;;1.05;67.52;100254.66;1710943;81;21145;-74
2021/04/25 01:32:49;;;;;;;8.23;3.20;;;;;;;1.07;68.03;100254.45;1691074;84;21151;-74
2021/04/25 01:35:22;;;;;;;7.27;3.03;;;;;;;1.04;67.46;100254.81;1683691;83;21236;-75
2021/04/25 01:37:55;;;;;;;8.30;3.13;;;;;;;1.02;67.34;100256.37;1704730;84;21169;-74
2021/04/25 01:40:27;;;;;;;6.43;2.73;;;;;;;1.02;67.59;100250.98;1682437;83;21133;-74
2021/04/25 01:42:55;;;;;;;8.20;2.80;;;;;;;1.01;67.93;100253.87;1671751;84;21152;-75
2021/04/25 01:45:23;;;;;;;6.90;2.83;;;;;;;0.98;68.04;100256.94;1671491;83;21127;-74
2021/04/25 01:47:56;;;;;;;6.92;3.30;;;;;;;0.95;67.63;100249.22;1672110;85;21235;-73
2021/04/25 01:50:25;;;;;;;7.33;3.03;;;;;;;0.93;68.31;100257.50;1676256;83;21156;-73
2021/04/25 01:52:54;;;;;;;8.40;3.60;;;;;;;0.90;68.51;100251.13;1708539;84;21109;-75
2021/04/25 01:55:22;;;;;;;7.83;3.23;;;;;;;0.89;68.51;100253.99;1713398;82;21147;-75
2021/04/25 01:57:50;;;;;;;7.03;3.20;;;;;;;0.87;68.76;100250.66;1718643;83;21634;-76
2021/04/25 02:00:22;;;;;;;;;;;;;;;0.85;68.78;100254.89;1710478;83;21127;-74
2021/04/25 02:02:52;;;;;;;8.73;3.40;;;;;;;0.85;69.30;100255.40;1697609;83;20209;-74
2021/04/25 02:05:21;;;;;;;7.87;3.50;;;;;;;0.84;69.28;100255.06;1683323;83;21188;-75
2021/04/25 02:07:50;;;;;;;8.50;3.60;;;;;;;0.82;69.35;100259.30;1679976;83;21655;-75
2021/04/25 02:10:18;;;;;;;;;;;;;;;0.80;69.03;100258.66;1710753;83;21130;-74
2021/04/25 02:12:45;;;;;;;7.37;3.62;;;;;;;0.79;69.02;100258.83;1692417;83;20187;-72
2021/04/25 02:15:14;;;;;;;11.10;3.80;;;;;;;0.80;69.50;100260.51;1720266;83;21239;-76
2021/04/25 02:17:42;;;;;;;16.10;4.65;;;;;;;0.78;69.82;100255.83;1717972;82;21149;-75
2021/04/25 02:20:12;;;;;;;10.67;3.80;;;;;;;0.76;70.15;100260.03;1712467;83;21120;-72
2021/04/25 02:22:40;;;;;;;9.77;3.57;;;;;;;0.75;69.39;100266.97;1698280;82;21152;-73
2021/04/25 02:25:09;;;;;;;8.53;3.75;;;;;;;0.74;69.58;100261.23;1679215;83;21171;-74
2021/04/25 02:27:38;;;;;;;10.73;3.30;;;;;;;0.76;70.33;100268.11;1705992;81;21553;-73
2021/04/25 02:30:18;;;;;;;8.50;4.17;;;;;;;0.77;70.19;100271.65;1692264;84;21549;-73
2021/04/25 02:32:47;;;;;;;13.27;4.03;;;;;;;0.77;69.14;100268.45;1695292;83;21585;-75
2021/04/25 02:35:15;;;;;;;10.60;4.50;;;;;;;0.79;68.96;100268.25;1696282;84;21156;-75
2021/04/25 02:37:44;;;;;;;10.80;4.72;;;;;;;0.81;68.79;100273.78;1673878;83;21167;-73
2021/04/25 02:40:15;;;;;;;8.58;4.15;;;;;;;0.81;68.65;100273.78;1722190;82;21119;-76
2021/04/25 02:42:43;;;;;;;11.37;4.43;;;;;;;0.81;69.38;100283.75;1693524;85;21109;-74
2021/04/25 02:45:15;;;;;;;9.63;4.40;;;;;;;0.80;69.45;100273.48;1673846;83;21788;-74
2021/04/25 02:47:49;;;;;;;11.97;4.07;;;;;;;0.80;69.91;100279.37;1672295;84;21179;-76
2021/04/25 02:50:19;;;;;;;8.60;3.63;;;;;;;0.81;70.40;100283.75;1717031;81;21144;-76
2021/04/25 02:52:46;;;;;;;11.93;3.87;;;;;;;0.81;70.21;100281.05;1715229;84;21537;-72
2021/04/25 02:55:14;;;;;;;7.73;3.73;;;;;;;0.82;69.78;100286.75;1687819;82;21148;-74
2021/04/25 02:57:43;;;;;;;8.80;3.67;;;;;;;0.84;69.96;100290.93;1686566;85;21657;-75
2021/04/25 03:00:15;;;;;;;11.08;3.20;;;;;;;0.86;70.03;100288.07;1702617;82;21604;-74
2021/04/25 03:02:42;;;;;;;8.63;3.47;;;;;;;0.86;69.53;100294.27;1715145;84;21573;-76
2021/04/25 03:05:11;;;;;;;8.95;3.33;;;;;;;0.88;69.12;100294.94;1701854;82;21163;-75
2021/04/25 03:07:39;;;;;;;6.57;2.90;;;;;;;0.90;69.19;100294.75;1686468;84;21190;-74
2021/04/25 03:10:08;;;;;;;7.05;2.77;;;;;;;0.94;68.83;100301.42;1686219;82;21656;-72
2021/04/25 03:12:37;;;;;;;10.50;3.20;;;;;;;0.98;68.54;100302.75;1686876;84;21301;-73
2021/04/25 03:15:06;;;;;;;8.13;3.17;;;;;;;1.01;68.36;100302.38;1696296;81;21880;-74
2021/04/25 03:17:35;;;;;;;8.47;3.80;;;;;;;1.05;67.81;100305.02;1707432;83;21190;-75
2021/04/25 03:20:05;;;;;;;10.30;4.33;;;;;;;1.08;68.14;100299.27;1695854;82;21152;-75
2021/04/25 03:22:33;;;;;;;15.87;6.77;;;;;;;1.13;68.31;100301.73;1679310;82;21147;-73
2021/04/25 03:25:01;;;;;;;17.98;7.85;;;;;;;1.17;67.31;100306.21;1696577;83;21179;-76
2021/04/25 03:27:29;;;;;;;19.73;7.63;;;;;;;1.22;66.95;100307.84;1713885;81;21096;-77
2021/04/25 03:29:57;;;;;;;15.15;7.37;;;;;;;1.25;67.23;100303.42;1715192;83;21359;-77
2021/04/25 03:32:25;;;;;;;14.20;6.53;;;;;;;1.28;67.64;100309.30;1720916;81;21564;-73
2021/04/25 03:34:53;;;;;;;12.67;6.20;;;;;;;1.33;67.18;100304.67;1721990;80;21200;-77
2021/04/25 03:37:21;;;;;;;10.72;5.03;;;;;;;1.38;67.12;100309.50;1719875;81;21132;-73
2021/04/25 03:39:51;;;;;;;11.73;5.00;;;;;;;1.43;67.86;100311.96;1723711;83;21555;-73
2021/04/25 03:42:19;;;;;;;12.23;4.60;;;;;;;1.47;66.81;100303.80;1696753;83;21147;-76
2021/04/25 03:44:47;;;;;;;11.15;4.37;;;;;;;1.52;66.82;100305.42;1696538;84;21180;-76
2021/04/25 03:47:15;;;;;;;10.88;4.53;;;;;;;1.58;66.96;100310.08;1701247;81;21127;-76
2021/04/25 03:49:44;;;;;;;12.77;4.87;;;;;;;1.64;66.04;100306.62;1696865;84;21244;-75
2021/04/25 03:52:12;;;;;;;14.63;4.67;;;;;;;1.70;64.72;100315.80;1698030;82;21147;-75
2021/04/25 03:54:40;;;;;;;12.63;5.12;;;;;;;1.73;64.24;100312.22;1719737;82;21118;-73
2021/04/25 03:57:08;;;;;;;8.68;4.42;;;;;;;1.78;64.06;100318.39;1707676;82;21248;-74
2021/04/25 03:59:36;;;;;;;17.10;6.50;;;;;;;1.82;64.70;100319.16;1691236;83;21190;-73
2021/04/25 04:02:04;;;;;;;14.70;7.87;;;;;;;1.88;65.23;100314.36;1691599;84;21210;-72
2021/04/25 04:04:31;;;;;;;19.25;7.78;;;;;;;1.95;65.20;100312.27;1716000;82;21622;-71
2021/04/25 04:07:00;;;;;;;15.08;7.37;;;;;;;2.00;64.11;100318.73;1717639;82;21180;-73
2021/04/25 04:09:28;;;;;;;14.13;6.55;;;;;;;2.05;64.39;100315.48;1709640;83;21237;-74
2021/04/25 04:11:56;;;;;;;21.35;6.67;;;;;;;2.09;62.86;100319.45;1715404;84;21153;-74
2021/04/25 04:14:24;;;;;;;18.20;7.30;;;;;;;2.10;63.15;100319.79;1702232;83;21128;-78
2021/04/25 04:16:51;;;;;;;20.97;7.40;;;;;;;2.14;63.56;100319.20;1701612;84;21702;-74
2021/04/25 04:19:19;;;;;;;12.88;6.12;;;;;;;2.22;63.89;100322.30;1694297;83;21413;-74
2021/04/25 04:21:49;;;;;;;16.77;6.73;;;;;;;2.28;64.01;100321.50;1724386;83;21240;-78
2021/04/25 04:24:17;;;;;;;16.60;6.75;;;;;;;2.34;64.39;100327.48;1720334;82;21143;-73
2021/04/25 04:26:45;;;;;;;12.82;6.10;;;;;;;2.40;64.28;100326.73;1716581;83;21589;-74
2021/04/25 04:29:13;;;;;;;14.65;6.20;;;;;;;2.47;64.44;100327.11;1716967;82;21174;-74
2021/04/25 04:31:41;;;;;;;12.03;5.58;;;;;;;2.54;63.73;100321.75;1675864;84;21165;-73
2021/04/25 04:34:09;;;;;;;11.95;4.47;;;;;;;2.61;63.81;100332.09;1689277;83;21149;-73
2021/04/25 04:36:38;;;;;;;11.47;4.50;;;;;;;2.68;62.23;100327.59;1671397;83;21177;-74
2021/04/25 04:39:06;;;;;;;12.98;4.90;;;;;;;2.78;63.01;100328.59;1674522;84;21196;-78
2021/04/25 04:41:34;;;;;;;10.63;4.60;;;;;;;2.86;61.89;100326.56;1684635;82;21365;-74
2021/04/25 04:44:03;;;;;;;12.55;4.22;;;;;;;2.95;61.68;100332.16;1701782;83;21207;-73
2021/04/25 04:46:31;;;;;;;10.00;3.83;;;;;;;3.04;61.54;100333.66;1685978;82;21140;-74
2021/04/25 04:48:58;;;;;;;10.03;3.37;;;;;;;3.14;61.39;100333.30;1676492;84;21152;-76
2021/04/25 04:51:26;;;;;;;8.00;3.65;;;;;;;3.24;60.36;100327.56;1679437;82;21120;-77
2021/04/25 04:53:54;;;;;;;10.28;3.20;;;;;;;3.35;61.54;100333.73;1675665;85;21177;-76
2021/04/25 04:56:22;;;;;;;7.62;3.08;;;;;;;3.44;60.97;100326.60;1681229;82;21561;-76
2021/04/25 04:58:50;;;;;;;6.47;2.80;;;;;;;3.53;60.98;100331.34;1674725;86;21120;-75
2021/04/25 05:01:18;;;;;;;9.28;3.33;;;;;;;3.60;59.21;100331.69;1674391;82;21148;-76
2021/04/25 05:03:47;;;;;;;7.22;3.58;;;;;;;3.67;59.63;100328.99;1675174;85;21470;-80
2021/04/25 05:06:15;;;;;;;10.43;3.15;;;;;;;3.76;59.59;100331.86;1658197;82;21253;-80
2021/04/25 05:08:44;;;;;;;8.40;3.35;;;;;;;3.83;58.82;100333.55;1701191;84;21607;-81
2021/04/25 05:11:13;;;;;;;8.15;3.30;;;;;;;3.92;57.63;100340.98;1661232;82;21150;-75
2021/04/25 05:13:41;;;;;;;7.40;3.22;;;;;;;4.02;57.30;100342.78;1674602;82;21173;-73
2021/04/25 05:16:10;;;;;;;8.73;3.22;;;;;;;4.09;58.60;100339.57;1682384;84;21155;-74
2021/04/25 05:18:39;;;;;;;7.95;3.10;;;;;;;4.14;56.31;100337.08;1709137;81;21179;-75
2021/04/25 05:21:07;;;;;;;6.83;2.60;;;;;;;4.22;56.47;100337.41;1718848;83;21148;-75
2021/04/25 05:23:35;;;;;;;9.70;2.83;;;;;;;4.32;56.50;100335.98;1714622;81;21141;-75
2021/04/25 05:26:02;;;;;;;5.92;2.77;;;;;;;4.41;55.75;100335.23;1718483;83;21484;-75
2021/04/25 05:28:30;;;;;;;8.40;3.87;;;;;;;4.49;55.46;100341.30;1725380;81;21169;-74
2021/04/25 05:31:00;;;;;;;6.05;3.20;;;;;;;4.60;54.52;100335.80;1714263;82;21190;-76
2021/04/25 05:33:29;;;;;;;8.50;2.62;;;;;;;4.74;56.10;100343.39;1722729;81;21524;-77
2021/04/25 05:35:57;;;;;;;5.75;2.52;;;;;;;4.82;56.05;100336.41;1714829;83;21123;-80
2021/04/25 05:38:25;;;;;;;6.05;2.00;;;;;;;4.89;55.58;100344.85;1678292;84;21201;-79
2021/04/25 05:40:53;;;;;;;8.50;2.22;;;;;;;4.96;54.55;100344.83;1697838;84;21161;-76
2021/04/25 05:43:21;;;;;;;5.65;1.80;;;;;;;5.01;55.01;100349.95;1658368;82;21223;-79
2021/04/25 05:45:49;;;;;;;5.65;2.45;;;;;;;5.08;52.95;100354.03;1708639;84;21144;-80
2021/04/25 05:48:17;;;;;;;6.60;2.80;;;;;;;5.12;53.08;100347.96;1713112;83;21149;-80
2021/04/25 05:50:45;;;;;;;7.15;2.27;;;;;;;5.17;52.56;100345.97;1686548;84;21743;-78
2021/04/25 05:53:13;;;;;;;5.87;2.10;;;;;;;5.24;53.54;100346.78;1686949;85;21165;-78
2021/04/25 05:55:42;;;;;;;6.17;2.22;;;;;;;5.30;52.38;100351.38;1699090;82;21160;-81
2021/04/25 05:58:10;;;;;;;6.28;2.33;;;;;;;5.39;52.32;100354.70;1707516;84;21294;-77
2021/04/25 06:00:39;;;;;;;9.75;1.98;;;;;;;5.45;52.27;100347.89;1681963;82;21124;-76
2021/04/25 06:03:08;;;;;;;9.83;2.00;;;;;;;5.51;51.49;100352.48;1674153;84;21117;-77
2021/04/25 06:05:36;;;;;;;4.47;1.50;;;;;;;5.54;50.76;100353.38;1673739;82;21136;-76
2021/04/25 06:08:04;;;;;;;6.20;1.67;;;;;;;5.58;49.03;100354.64;1674601;84;21115;-75
2021/04/25 06:10:33;;;;;;;6.80;2.10;;;;;;;5.62;49.97;100355.87;1703078;82;21117;-74
2021/04/25 06:13:00;;;;;;;8.70;2.72;;;;;;;5.65;50.50;100355.97;1708075;84;21109;-74
2021/04/25 06:15:30;;;;;;;5.67;2.00;;;;;;;5.70;50.51;100351.56;1700069;82;21642;-72
2021/04/25 06:18:02;;;;;;;7.60;2.15;;;;;;;5.79;51.45;100354.34;1679805;84;21138;-75
2021/04/25 06:20:28;;;;;;;7.12;2.25;;;;;;;5.85;50.09;100357.27;1682210;82;21169;-74
2021/04/25 06:22:56;;;;;;;7.20;2.30;;;;;;;5.89;51.22;100354.45;1694714;84;21551;-74
2021/04/25 06:25:24;;;;;;;;;;;;;;;5.95;51.34;100353.57;1715413;82;21149;-74
2021/04/25 06:27:52;;;;;;;8.55;3.20;;;;;;;6.03;51.67;100356.89;1679040;84;20241;-75
2021/04/25 06:30:20;;;;;;;6.37;2.30;;;;;;;6.11;52.03;100351.73;1686383;84;21190;-75
2021/04/25 06:32:48;;;;;;;9.78;1.80;;;;;;;6.20;51.88;100359.92;1699924;82;21106;-74
2021/04/25 06:35:17;;;;;;;5.53;1.62;;;;;;;6.23;49.63;100356.25;1715011;83;21130;-75
2021/04/25 06:37:46;;;;;;;6.00;2.00;;;;;;;6.30;49.28;100351.61;1697522;82;21260;-75
2021/04/25 06:40:15;;;;;;;5.00;2.00;;;;;;;6.35;49.27;100356.38;1690617;83;21157;-74
2021/04/25 06:42:43;;;;;;;5.90;2.12;;;;;;;6.39;49.31;100356.27;1699892;82;21118;-74
2021/04/25 06:45:15;;;;;;;5.62;2.70;;;;;;;6.45;49.52;100358.13;1686495;85;21150;-74
2021/04/25 06:47:43;;;;;;;5.58;2.08;;;;;;;6.51;50.01;100355.87;1681426;82;21137;-74
2021/04/25 06:50:12;;;;;;;5.90;2.47;;;;;;;6.58;49.87;100356.64;1674391;84;21638;-77
2021/04/25 06:52:42;;;;;;;6.95;2.40;;;;;;;6.63;49.47;100354.09;1674768;82;21208;-76
2021/04/25 06:55:15;;;;;;;7.58;2.22;;;;;;;6.67;49.02;100348.55;1674732;84;21159;-76
2021/04/25 06:57:44;;;;;;;7.15;2.10;;;;;;;6.74;48.97;100349.84;1701197;82;21248;-78
2021/04/25 07:00:13;;;;;;;4.97;1.95;;;;;;;6.75;48.89;100347.44;1721442;83;21104;-71
2021/04/25 07:02:41;;;;;;;4.85;1.50;;;;;;;6.68;47.51;100355.63;1720791;82;21735;-74
2021/04/25 07:05:10;;;;;;;6.90;2.30;;;;;;;6.67;48.72;100340.39;1727891;83;21185;-76
2021/04/25 07:07:38;;;;;;;4.50;2.00;;;;;;;6.75;50.41;100345.56;1690696;83;21607;-74
2021/04/25 07:10:07;;;;;;;5.12;1.95;;;;;;;6.89;49.68;100340.30;1696669;83;21177;-75
2021/04/25 07:12:35;;;;;;;5.70;1.87;;;;;;;6.97;48.56;100342.75;1712271;84;21134;-76
2021/04/25 07:15:06;;;;;;;7.75;2.12;;;;;;;6.96;46.81;100347.88;1699944;83;21131;-73
2021/04/25 07:17:35;;;;;;;5.37;2.25;;;;;;;6.97;46.92;100346.83;1714921;84;21153;-71
2021/04/25 07:20:07;;;;;;;5.72;1.90;;;;;;;6.98;46.76;100348.47;1700673;82;21157;-76
2021/04/25 07:22:36;;;;;;;5.72;2.17;;;;;;;6.98;47.33;100351.20;1696967;84;21688;-75
2021/04/25 07:25:09;;;;;;;5.20;2.37;;;;;;;7.05;46.43;100342.99;1701370;82;21133;-75
2021/04/25 07:27:37;;;;;;;5.65;2.05;;;;;;;7.14;47.26;100341.63;1697918;84;21777;-74
2021/04/25 07:30:07;;;;;;;5.37;1.80;;;;;;;7.27;45.95;100338.78;1697672;82;21173;-72
2021/04/25 07:32:35;;;;;;;4.72;2.12;;;;;;;7.42;45.32;100345.22;1694278;84;21432;-72
2021/04/25 07:35:05;;;;;;;4.58;1.80;;;;;;;7.57;44.68;100338.87;1698065;82;21229;-75
2021/04/25 07:37:33;;;;;;;3.67;1.52;;;;;;;7.67;43.80;100336.45;1696232;83;21571;-72
2021/04/25 07:40:03;;;;;;;6.83;1.50;;;;;;;7.75;43.16;100337.52;1700363;82;21204;-74
2021/04/25 07:42:31;;;;;;;4.53;1.60;;;;;;;7.80;43.60;100334.94;1699396;84;21114;-72
2021/04/25 07:44:59;;;;;;;6.33;1.67;;;;;;;7.86;42.83;100329.95;1698436;82;21195;-75
2021/04/25 07:47:27;;;;;;;4.13;1.50;;;;;;;7.91;42.07;100332.81;1699305;84;21386;-72
2021/04/25 07:49:55;;;;;;;6.35;1.60;;;;;;;7.98;42.32;100330.83;1694084;84;21338;-76
2021/04/25 07:52:23;;;;;;;5.97;1.90;;;;;;;8.10;41.14;100323.53;1697811;82;21589;-75
2021/04/25 07:54:53;;;;;;;4.67;1.90;;;;;;;8.10;41.14;100323.53;1694404;82;21190;-73
2021/04/25 07:57:20;;;;;;;3.62;1.65;;;;;;;8.17;43.25;100321.53;1709934;81;21184;-71
2021/04/25 07:59:48;;;;;;;4.83;1.20;;;;;;;8.26;44.29;100317.97;1701633;84;21682;-74
2021/04/25 08:02:17;;;;;;;4.55;1.32;;;;;;;8.40;39.84;100318.64;1695659;82;21336;-75
2021/04/25 08:04:44;;;;;;;4.62;1.20;;;;;;;8.47;37.28;100322.94;1698748;82;21561;-75
2021/04/25 08:07:12;;;;;;;2.45;1.15;;;;;;;8.45;37.21;100320.14;1691196;82;21137;-76
2021/04/25 08:09:44;;;;;;;6.58;1.65;;;;;;;8.34;38.78;100314.11;1695596;84;21600;-76
2021/04/25 08:12:12;;;;;;;6.53;1.40;;;;;;;8.34;38.78;100314.11;1667241;84;21309;-73
2021/04/25 08:14:40;;;;;;;5.78;1.60;;;;;;;8.46;40.61;100314.44;1695313;84;21721;-75
2021/04/25 08:17:08;;;;;;;3.92;1.50;;;;;;;8.56;40.42;100308.41;1699098;82;21152;-72
2021/04/25 08:19:36;;;;;;;4.20;1.47;;;;;;;8.50;38.44;100305.27;1699556;84;21625;-74
2021/04/25 08:22:07;;;;;;;3.67;1.42;;;;;;;8.51;39.54;100311.00;1697867;83;21239;-74
2021/04/25 08:24:35;;;;;;;5.40;1.12;;;;;;;8.57;39.18;100312.81;1696988;82;21590;-76
2021/04/25 08:27:03;;;;;;;4.50;1.30;;;;;;;8.59;41.51;100306.58;1698855;82;21595;-74
2021/04/25 08:29:32;;;;;;;5.37;1.40;;;;;;;8.65;37.48;100301.56;1697954;84;21651;-71
2021/04/25 08:32:00;;;;;;;3.47;1.35;;;;;;;8.76;36.90;100308.92;1698153;84;21855;-72
2021/04/25 08:34:28;;;;;;;3.30;1.17;;;;;;;8.89;35.67;100304.60;1695379;82;21171;-77
2021/04/25 08:36:55;;;;;;;5.80;1.40;;;;;;;8.96;37.39;100303.95;1697777;84;21173;-73
2021/04/25 08:39:23;;;;;;;4.60;1.15;;;;;;;9.07;37.29;100292.21;1694028;83;21765;-75
2021/04/25 08:41:53;;;;;;;4.95;1.30;;;;;;;9.19;37.85;100290.30;1692068;84;21132;-79
2021/04/25 08:44:21;;;;;;;4.85;1.40;;;;;;;9.29;37.74;100291.89;1672056;84;21258;-79
2021/04/25 08:46:50;;;;;;;3.52;1.47;;;;;;;9.40;37.91;100292.42;1703520;83;21095;-73
2021/04/25 08:49:25;;;;;;;2.52;1.10;;;;;;;9.54;37.79;100288.34;1696697;83;21172;-76
2021/04/25 08:51:53;;;;;;;5.10;1.20;;;;;;;9.65;36.43;100288.03;1695995;84;21124;-74
2021/04/25 08:54:24;;;;;;;4.37;1.50;;;;;;;9.72;34.49;100281.05;1696970;82;21196;-74
2021/04/25 08:56:55;;;;;;;5.42;1.50;;;;;;;9.81;35.38;100288.64;1697589;84;21152;-74
2021/04/25 08:59:23;;;;;;;4.28;1.20;;;;;;;9.82;35.97;100285.35;1693640;83;21147;-72
2021/04/25 09:01:51;;;;;;;5.08;1.20;;;;;;;9.83;36.02;100287.02;1699402;83;21116;-72
2021/04/25 09:04:19;;;;;;;3.85;1.22;;;;;;;9.82;34.46;100283.98;1701351;83;21162;-76
2021/04/25 09:07:05;;;;;;;3.10;1.15;;;;;;;9.75;32.23;100289.61;1667059;84;21155;-78
2021/04/25 09:09:49;;;;;;;8.35;2.55;;;;;;;9.72;33.83;100280.52;1698713;82;21160;-77
2021/04/25 09:12:36;;;;;;;11.18;3.77;;;;;;;9.84;36.03;100280.50;1680182;84;21186;-78
2021/04/25 09:15:13;;;;;;;4.58;1.67;;;;;;;10.01;36.74;100270.44;1692612;83;21713;-78
2021/04/25 09:17:56;;;;;;;2.72;0.90;;;;;;;10.15;34.70;100266.34;1681297;84;21570;-72
2021/04/25 09:20:46;;;;;;;6.40;1.52;;;;;;;10.16;32.10;100270.75;1685122;83;21243;-76
2021/04/25 09:23:26;;;;;;;4.72;1.80;;;;;;;10.13;32.34;100269.34;1707384;83;21097;-76
2021/04/25 09:26:00;;;;;;;5.73;2.50;;;;;;;9.98;33.87;100266.28;1718472;81;21134;-76
2021/04/25 09:28:28;;;;;;;5.37;2.37;;;;;;;10.01;33.99;100255.40;1690733;83;21144;-76
2021/04/25 09:31:09;;;;;;;10.10;3.75;;;;;;;10.16;34.74;100257.08;1708309;81;21164;-74
2021/04/25 09:33:57;;;;;;;3.60;1.32;;;;;;;10.36;34.14;100256.08;1720745;82;21203;-75
2021/04/25 09:36:28;;;;;;;4.83;1.92;;;;;;;10.34;31.07;100256.87;1696393;83;21250;-76
2021/04/25 09:39:15;;;;;;;8.98;2.58;;;;;;;10.43;33.03;100251.27;1629272;84;21201;-75
2021/04/25 09:41:42;;;;;;;7.90;2.52;;;;;;;10.58;34.16;100252.89;1702940;82;21177;-76
2021/04/25 09:44:31;;;;;;;;;;;;;;;10.75;32.44;100252.34;1709098;83;21195;-75
2021/04/25 09:47:01;;;;;;;;;;;;;;;10.83;33.25;100240.97;1702096;82;20193;-74
2021/04/25 09:49:48;;;;;;;4.95;1.30;;;;;;;10.94;33.01;100237.02;1709483;83;20621;-75
2021/04/25 09:52:34;;;;;;;5.97;1.20;;;;;;;11.03;32.39;100239.64;1698886;82;21163;-76
2021/04/25 09:55:27;;;;;;;3.55;1.20;;;;;;;11.01;30.74;100236.30;1714107;82;21140;-75
2021/04/25 09:57:58;;;;;;;4.03;1.05;;;;;;;10.85;33.85;100240.18;1697368;82;21762;-75
2021/04/25 10:00:42;;;;;;;4.62;1.30;;;;;;;10.79;31.02;100244.47;1702189;84;21149;-74
2021/04/25 10:03:10;;;;;;;8.10;1.22;;;;;;;10.66;30.98;100242.06;1704220;82;21268;-73
2021/04/25 10:05:58;;;;;;;4.10;1.25;;;;;;;10.59;31.30;100247.72;1702954;82;21156;-75
2021/04/25 10:08:33;;;;;;;4.17;1.12;;;;;;;10.67;30.70;100244.58;1707249;82;21153;-72
2021/04/25 10:11:03;;;;;;;7.03;1.45;;;;;;;10.62;30.91;100233.55;1702236;82;21159;-73
2021/04/25 10:13:44;;;;;;;3.83;1.10;;;;;;;10.53;31.41;100241.02;1696059;83;21211;-74
2021/04/25 10:16:06;;;;;;;3.90;1.10;;;;;;;10.42;31.06;100234.58;1703730;82;21133;-76
2021/04/25 10:18:38;;;;;;;4.35;1.30;;;;;;;10.27;31.53;100231.55;1677449;83;21217;-75
2021/04/25 10:21:06;;;;;;;3.27;1.10;;;;;;;10.13;31.77;100253.46;1703781;82;21148;-74
2021/04/25 10:23:35;;;;;;;3.72;1.15;;;;;;;10.13;31.96;100243.89;1703568;82;21275;-77
2021/04/25 10:26:15;;;;;;;7.58;1.55;;;;;;;10.25;31.05;100239.71;1726156;81;21171;-75
2021/04/25 10:28:48;;;;;;;3.45;1.47;;;;;;;10.41;31.89;100234.80;1687953;83;21858;-73
2021/04/25 10:31:30;;;;;;;6.05;1.37;;;;;;;10.58;32.47;100235.09;1703489;83;21561;-74
2021/04/25 10:34:17;;;;;;;2.58;1.10;;;;;;;10.75;33.83;100241.39;1704346;83;21174;-72
2021/04/25 10:36:51;;;;;;;2.77;1.15;;;;;;;11.01;32.86;100239.03;1700790;83;21169;-72
2021/04/25 10:39:52;;;;;;;3.55;1.40;;;;;;;11.21;32.48;100222.89;1701733;83;21652;-73
2021/04/25 10:42:29;;;;;;;7.03;1.77;;;;;;;11.42;32.61;100224.83;1697233;84;21119;-72
2021/04/25 10:45:15;;;;;;;5.97;1.52;;;;;;;11.58;31.62;100228.05;1697506;83;21527;-72
2021/04/25 10:47:41;;;;;;;3.62;1.55;;;;;;;11.59;31.93;100222.84;1707386;84;21161;-74
2021/04/25 10:50:24;;;;;;;3.35;1.40;;;;;;;11.48;31.75;100216.96;1696845;83;21132;-74
2021/04/25 10:52:52;;;;;;;3.95;1.30;;;;;;;11.47;31.10;100205.70;1673910;86;21216;-72
2021/04/25 10:55:25;;;;;;;4.58;1.22;;;;;;;11.52;31.88;100226.31;1688215;83;21341;-78
2021/04/25 10:58:07;;;;;;;4.58;1.30;;;;;;;11.41;31.15;100220.41;1688962;83;21851;-74
2021/04/25 11:00:42;;;;;;;4.15;1.20;;;;;;;11.44;29.88;100210.31;1702959;82;21148;-75
2021/04/25 11:03:14;;;;;;;5.28;1.70;;;;;;;11.42;29.87;100214.70;1707133;83;21198;-77
2021/04/25 11:05:44;;;;;;;5.50;1.95;;;;;;;11.44;30.29;100204.84;1704140;82;21545;-79
2021/04/25 11:08:32;;;;;;;3.72;1.40;;;;;;;11.60;32.12;100212.17;1675379;83;21209;-75
2021/04/25 11:11:09;;;;;;;;;;;;;;;11.67;31.16;100210.05;1709368;82;21466;-71
2021/04/25 11:13:49;;;;;;;4.58;1.55;;;;;;;11.56;31.14;100208.27;1704122;83;20301;-73
2021/04/25 11:16:28;;;;;;;5.67;1.90;;;;;;;11.42;31.22;100203.73;1691534;82;21153;-77
2021/04/25 11:19:11;;;;;;;5.17;2.22;;;;;;;11.39;32.62;100203.41;1704259;83;21145;-77
2021/04/25 11:21:57;;;;;;;8.00;2.00;;;;;;;11.48;32.89;100200.52;1675266;83;21283;-76
2021/04/25 11:24:28;;;;;;;4.20;1.40;;;;;;;11.57;33.16;100194.86;1705183;83;21132;-82
2021/04/25 11:26:59;;;;;;;4.90;1.80;;;;;;;11.71;33.65;100185.20;1700741;83;21160;-77
2021/04/25 11:29:42;;;;;;;7.05;2.15;;;;;;;11.81;30.26;100181.73;1699133;83;21635;-76
2021/04/25 11:32:28;;;;;;;6.22;1.62;;;;;;;11.92;30.48;100186.21;1698462;82;21252;-74
2021/04/25 11:35:00;;;;;;;5.92;1.77;;;;;;;12.13;29.71;100195.48;1706512;81;21309;-78
2021/04/25 11:37:28;;;;;;;5.08;2.05;;;;;;;12.08;31.05;100184.75;1686046;83;21170;-78
2021/04/25 11:39:59;;;;;;;4.70;1.85;;;;;;;12.01;29.72;100193.74;1689670;84;21283;-75
2021/04/25 11:42:44;;;;;;;5.22;1.50;;;;;;;11.86;29.64;100190.02;1698863;84;21177;-76
2021/04/25 11:45:26;;;;;;;4.62;1.80;;;;;;;11.78;29.64;100174.84;1695312;83;21157;-78
2021/04/25 11:47:57;;;;;;;9.35;2.15;;;;;;;11.78;29.16;100183.08;1706450;82;21133;-81